Time;durP1;ratioP1;P1;durP2;ratioP2;P2;SDS_P1;SDS_P2;PMS_P1;PMS_P2;Temp;Humidity;BMP_temperature;BMP_pressure;BME280_temperature;BME280_humidity;BME280_pressure;Samples;Min_cycle;Max_cycle;Signal;HPM_P1;HPM_P2
2022/05/21 00:01:43;;;;;;;5.93;1.77;;;;;;;;;;5067698;28;20040;-49
2022/05/21 00:04:09;;;;;;;6.85;1.70;;;;;;;;;;5058802;28;20072;-51
2022/05/21 00:06:35;;;;;;;8.73;2.03;;;;;;;;;;5068541;28;20028;-52
2022/05/21 00:09:01;;;;;;;6.55;1.60;;;;;;;;;;5062633;28;20029;-50
2022/05/21 00:11:27;;;;;;;5.53;1.73;;;;;;;;;;5069607;28;20459;-51
2022/05/21 00:13:55;;;;;;;7.60;2.15;;;;;;;;;;5057219;28;20103;-52
2022/05/21 00:16:22;;;;;;;8.18;2.08;;;;;;;;;;5069566;28;20032;-50
2022/05/21 00:18:49;;;;;;;5.95;1.85;;;;;;;;;;5056793;28;20033;-51
2022/05/21 00:21:15;;;;;;;7.00;1.83;;;;;;;;;;5069212;28;20485;-52
2022/05/21 00:23:42;;;;;;;9.38;2.42;;;;;;;;;;5059513;28;20029;-50
2022/05/21 00:26:09;;;;;;;5.05;1.60;;;;;;;;;;5066869;28;20545;-52
2022/05/21 00:28:36;;;;;;;7.85;1.75;;;;;;;;;;5061115;28;20036;-52
2022/05/21 00:31:03;;;;;;;5.88;1.98;;;;;;;;;;5048771;28;20152;-52
2022/05/21 00:33:29;;;;;;;8.20;1.60;;;;;;;;;;5053184;28;20021;-50
2022/05/21 00:35:55;;;;;;;8.38;1.77;;;;;;;;;;5062364;28;20539;-49
2022/05/21 00:38:21;;;;;;;8.23;2.13;;;;;;;;;;5065921;28;20020;-50
2022/05/21 00:40:47;;;;;;;5.53;1.83;;;;;;;;;;5049641;28;20120;-53
2022/05/21 00:43:32;;;;;;;8.07;2.17;;;;;;;;;;5052204;28;20553;-50
2022/05/21 00:45:59;;;;;;;3.15;1.50;;;;;;;;;;5059259;28;20113;-54
2022/05/21 00:48:25;;;;;;;6.05;2.00;;;;;;;;;;5067119;28;20053;-52
2022/05/21 00:50:52;;;;;;;4.32;1.45;;;;;;;;;;5057953;28;20102;-52
2022/05/21 00:53:18;;;;;;;4.32;1.70;;;;;;;;;;5067306;28;20111;-53
2022/05/21 00:55:44;;;;;;;7.10;2.30;;;;;;;;;;5057316;28;20020;-48
2022/05/21 01:00:58;;;;;;;6.72;1.80;;;;;;;;;;5060367;28;20504;-50
2022/05/21 01:03:26;;;;;;;7.50;1.85;;;;;;;;;;5048481;28;20123;-50
2022/05/21 01:05:52;;;;;;;3.33;1.30;;;;;;;;;;5043231;28;20048;-51
2022/05/21 01:08:18;;;;;;;2.95;1.35;;;;;;;;;;5049292;28;20053;-52
2022/05/21 01:10:47;;;;;;;7.15;1.73;;;;;;;;;;5061158;28;20552;-50
2022/05/21 01:13:16;;;;;;;7.60;2.00;;;;;;;;;;5048669;28;20120;-51
2022/05/21 01:15:43;;;;;;;6.93;1.88;;;;;;;;;;5053499;28;20021;-49
2022/05/21 01:18:10;;;;;;;5.35;1.90;;;;;;;;;;5048868;28;20029;-54
2022/05/21 01:20:43;;;;;;;5.82;1.70;;;;;;;;;;5053766;28;20095;-50
2022/05/21 01:23:09;;;;;;;6.82;2.30;;;;;;;;;;5067318;28;20032;-50
2022/05/21 01:25:37;;;;;;;6.97;2.00;;;;;;;;;;5060593;28;20029;-50
2022/05/21 01:28:04;;;;;;;5.47;1.85;;;;;;;;;;5065275;28;20020;-47
2022/05/21 01:30:33;;;;;;;3.92;1.60;;;;;;;;;;5062022;28;20100;-46
2022/05/21 01:32:58;;;;;;;6.78;2.00;;;;;;;;;;5062551;28;20024;-48
2022/05/21 01:35:24;;;;;;;4.95;1.98;;;;;;;;;;5064054;28;20052;-51
2022/05/21 01:37:51;;;;;;;7.03;2.47;;;;;;;;;;5060582;28;20071;-49
2022/05/21 01:40:18;;;;;;;5.63;2.08;;;;;;;;;;5064286;28;20021;-51
2022/05/21 01:44:37;;;;;;;5.72;1.92;;;;;;;;;;5068153;28;20036;-53
2022/05/21 01:45:30;;;;;;;4.82;1.73;;;;;;;;;;5066146;28;20032;-53
2022/05/21 01:47:56;;;;;;;4.32;1.83;;;;;;;;;;5058093;28;20965;-54
2022/05/21 01:50:22;;;;;;;5.20;1.65;;;;;;;;;;5066670;28;20114;-51
2022/05/21 01:52:48;;;;;;;5.95;2.33;;;;;;;;;;5057341;28;20017;-53
2022/05/21 01:55:14;;;;;;;4.60;2.03;;;;;;;;;;5071482;28;20450;-52
2022/05/21 01:57:41;;;;;;;4.53;1.73;;;;;;;;;;5063395;28;20045;-48
2022/05/21 02:00:07;;;;;;;6.05;1.90;;;;;;;;;;5052399;28;20108;-54
2022/05/21 02:02:33;;;;;;;4.85;1.85;;;;;;;;;;5069649;28;20029;-53
2022/05/21 02:04:59;;;;;;;5.53;2.15;;;;;;;;;;5072232;28;20848;-53
2022/05/21 02:07:26;;;;;;;9.60;2.42;;;;;;;;;;5059060;28;20460;-50
2022/05/21 02:09:51;;;;;;;5.45;1.92;;;;;;;;;;5056701;28;20086;-49
2022/05/21 02:12:18;;;;;;;3.50;1.52;;;;;;;;;;5055375;28;20048;-52
2022/05/21 02:14:44;;;;;;;8.82;2.40;;;;;;;;;;5068388;28;20448;-49
2022/05/21 02:17:10;;;;;;;7.30;2.45;;;;;;;;;;5066647;28;20032;-54
2022/05/21 02:19:36;;;;;;;5.10;1.85;;;;;;;;;;5056904;28;20035;-52
2022/05/21 02:22:02;;;;;;;6.68;2.10;;;;;;;;;;5056248;28;21326;-52
2022/05/21 02:24:28;;;;;;;4.07;2.03;;;;;;;;;;5059320;28;20025;-51
2022/05/21 02:26:54;;;;;;;5.13;1.85;;;;;;;;;;5053611;28;20099;-53
2022/05/21 02:29:20;;;;;;;3.65;1.70;;;;;;;;;;5061510;28;20033;-51
2022/05/21 02:31:47;;;;;;;4.05;1.80;;;;;;;;;;5052952;28;20020;-50
2022/05/21 02:34:13;;;;;;;5.70;2.50;;;;;;;;;;5058617;28;20063;-51
2022/05/21 02:39:28;;;;;;;4.55;1.80;;;;;;;;;;5061766;28;20078;-54
2022/05/21 02:41:55;;;;;;;4.00;1.77;;;;;;;;;;5051849;28;20041;-52
2022/05/21 02:44:21;;;;;;;3.65;1.80;;;;;;;;;;5053834;28;20056;-52
2022/05/21 02:46:47;;;;;;;5.03;1.70;;;;;;;;;;5051437;28;20115;-54
2022/05/21 02:49:13;;;;;;;3.25;1.52;;;;;;;;;;5063552;28;20437;-51
2022/05/21 02:51:39;;;;;;;6.22;2.15;;;;;;;;;;5050313;28;20112;-52
2022/05/21 02:54:06;;;;;;;4.78;2.35;;;;;;;;;;5052959;28;20107;-51
2022/05/21 02:56:32;;;;;;;4.55;1.77;;;;;;;;;;5071255;28;20115;-49
2022/05/21 02:58:59;;;;;;;5.03;1.95;;;;;;;;;;5059692;28;20570;-54
2022/05/21 03:01:25;;;;;;;4.55;1.80;;;;;;;;;;5069255;28;20132;-51
2022/05/21 03:03:51;;;;;;;3.45;1.45;;;;;;;;;;5062367;28;20547;-53
2022/05/21 03:06:17;;;;;;;4.85;2.03;;;;;;;;;;5066861;28;20144;-54
2022/05/21 03:11:27;;;;;;;5.05;2.05;;;;;;;;;;5071049;28;20237;-52
2022/05/21 03:13:53;;;;;;;4.20;1.67;;;;;;;;;;5062672;28;20093;-51
2022/05/21 03:16:19;;;;;;;4.10;1.55;;;;;;;;;;5056665;28;20472;-51
2022/05/21 03:18:45;;;;;;;4.60;2.00;;;;;;;;;;5054325;28;20053;-50
2022/05/21 03:21:13;;;;;;;3.72;1.83;;;;;;;;;;5059158;28;20064;-51
2022/05/21 03:23:39;;;;;;;4.60;1.83;;;;;;;;;;5051136;28;20025;-50
2022/05/21 03:26:06;;;;;;;4.18;1.70;;;;;;;;;;5061606;28;20395;-49
2022/05/21 03:28:32;;;;;;;3.72;1.92;;;;;;;;;;5051407;28;20033;-50
2022/05/21 03:30:58;;;;;;;6.15;1.98;;;;;;;;;;5061115;28;20116;-53
2022/05/21 03:33:24;;;;;;;4.70;1.77;;;;;;;;;;5050378;28;20112;-52
2022/05/21 03:35:51;;;;;;;4.35;1.90;;;;;;;;;;5062979;28;20104;-51
2022/05/21 03:38:19;;;;;;;4.35;1.58;;;;;;;;;;5051111;28;20025;-48
2022/05/21 03:40:45;;;;;;;3.45;1.52;;;;;;;;;;5062913;28;20116;-52
2022/05/21 03:43:11;;;;;;;3.33;1.40;;;;;;;;;;5050746;28;20107;-54
2022/05/21 03:45:37;;;;;;;4.40;1.88;;;;;;;;;;5062128;28;20108;-54
2022/05/21 03:48:05;;;;;;;3.95;1.70;;;;;;;;;;5051467;28;20535;-49
2022/05/21 03:50:32;;;;;;;5.00;1.80;;;;;;;;;;5059214;28;20548;-50
2022/05/21 03:52:58;;;;;;;3.65;1.67;;;;;;;;;;5062063;28;20095;-52
2022/05/21 03:55:24;;;;;;;4.28;1.55;;;;;;;;;;5065960;28;20081;-50
2022/05/21 03:57:50;;;;;;;3.97;1.67;;;;;;;;;;5068982;28;20482;-49
2022/05/21 04:00:17;;;;;;;5.38;1.63;;;;;;;;;;5065425;28;20032;-49
2022/05/21 04:02:44;;;;;;;5.20;1.90;;;;;;;;;;5057762;28;20048;-51
2022/05/21 04:05:11;;;;;;;5.88;2.17;;;;;;;;;;5051861;28;20018;-52
2022/05/21 04:07:39;;;;;;;5.57;1.90;;;;;;;;;;5059612;28;20028;-53
2022/05/21 04:10:05;;;;;;;5.20;1.60;;;;;;;;;;5063061;28;20029;-53
2022/05/21 04:12:31;;;;;;;4.75;1.67;;;;;;;;;;5067952;28;20466;-53
2022/05/21 04:14:57;;;;;;;4.30;1.67;;;;;;;;;;5068719;28;20119;-53
2022/05/21 04:17:23;;;;;;;4.68;1.70;;;;;;;;;;5060727;28;20028;-53
2022/05/21 04:19:49;;;;;;;4.03;1.50;;;;;;;;;;5049742;28;20056;-54
2022/05/21 04:22:15;;;;;;;3.85;1.40;;;;;;;;;;5061676;28;20411;-52
2022/05/21 04:24:41;;;;;;;5.07;1.48;;;;;;;;;;5055189;28;20044;-48
2022/05/21 04:27:08;;;;;;;6.47;1.60;;;;;;;;;;5065345;28;20059;-49
2022/05/21 04:29:34;;;;;;;5.43;1.90;;;;;;;;;;5049611;28;20045;-52
2022/05/21 04:32:00;;;;;;;5.35;1.83;;;;;;;;;;5059003;28;20107;-53
2022/05/21 04:34:26;;;;;;;4.78;1.40;;;;;;;;;;5050736;28;20045;-53
2022/05/21 04:36:52;;;;;;;3.58;1.63;;;;;;;;;;5052976;28;20032;-48
2022/05/21 04:39:18;;;;;;;4.28;1.60;;;;;;;;;;5063889;28;20127;-53
2022/05/21 04:41:44;;;;;;;4.40;1.60;;;;;;;;;;5064048;28;20037;-53
2022/05/21 04:44:10;;;;;;;3.78;1.60;;;;;;;;;;5061888;28;20074;-50
2022/05/21 04:46:37;;;;;;;6.50;2.22;;;;;;;;;;5066735;28;20040;-51
2022/05/21 04:49:03;;;;;;;8.20;1.77;;;;;;;;;;5059128;28;20060;-50
2022/05/21 04:51:29;;;;;;;3.03;1.20;;;;;;;;;;5067527;28;20024;-51
2022/05/21 04:53:55;;;;;;;5.10;1.83;;;;;;;;;;5057536;28;20020;-53
2022/05/21 04:56:22;;;;;;;6.28;1.85;;;;;;;;;;5068462;28;20028;-50
2022/05/21 04:58:48;;;;;;;5.57;1.80;;;;;;;;;;5060334;28;20055;-52
2022/05/21 05:01:14;;;;;;;6.40;1.52;;;;;;;;;;5049307;28;20060;-53
2022/05/21 05:03:40;;;;;;;8.77;2.10;;;;;;;;;;5063971;28;20056;-50
2022/05/21 05:06:08;;;;;;;5.60;1.48;;;;;;;;;;5068621;28;20028;-52
2022/05/21 05:08:34;;;;;;;5.57;1.58;;;;;;;;;;5062022;28;20036;-52
2022/05/21 05:11:01;;;;;;;4.13;1.77;;;;;;;;;;5057466;28;20032;-52
2022/05/21 05:13:27;;;;;;;4.20;1.92;;;;;;;;;;5064555;28;20044;-51
2022/05/21 05:15:53;;;;;;;5.00;1.63;;;;;;;;;;5050734;28;20074;-52
2022/05/21 05:18:27;;;;;;;7.13;1.67;;;;;;;;;;5056983;28;20356;-51
2022/05/21 05:20:53;;;;;;;6.15;2.00;;;;;;;;;;5051956;28;20506;-47
2022/05/21 05:23:19;;;;;;;12.50;3.08;;;;;;;;;;5061236;28;20135;-53
2022/05/21 05:25:45;;;;;;;13.25;2.40;;;;;;;;;;5068640;28;20119;-49
2022/05/21 05:28:17;;;;;;;10.63;2.78;;;;;;;;;;5066807;28;20025;-50
2022/05/21 05:30:44;;;;;;;7.85;2.97;;;;;;;;;;5065390;28;20170;-53
2022/05/21 05:33:10;;;;;;;10.32;2.83;;;;;;;;;;5069731;28;20138;-50
2022/05/21 05:35:36;;;;;;;9.77;3.05;;;;;;;;;;5063201;28;20520;-51
2022/05/21 05:38:10;;;;;;;7.03;2.67;;;;;;;;;;5070987;28;20031;-47
2022/05/21 05:40:36;;;;;;;7.40;2.65;;;;;;;;;;5053630;28;20491;-53
2022/05/21 05:43:03;;;;;;;10.30;2.70;;;;;;;;;;5054360;28;20033;-52
2022/05/21 05:45:29;;;;;;;8.80;3.25;;;;;;;;;;5054872;28;20372;-52
2022/05/21 05:47:56;;;;;;;7.90;2.30;;;;;;;;;;5051864;28;20111;-50
2022/05/21 05:50:22;;;;;;;10.43;2.95;;;;;;;;;;5063843;28;20029;-49
2022/05/21 05:52:48;;;;;;;12.27;4.32;;;;;;;;;;5052335;28;20101;-51
2022/05/21 05:55:14;;;;;;;11.13;2.55;;;;;;;;;;5057492;28;20445;-49
2022/05/21 05:57:40;;;;;;;14.70;3.53;;;;;;;;;;5071828;28;20116;-50
2022/05/21 06:00:07;;;;;;;12.82;3.58;;;;;;;;;;5062664;28;20115;-51
2022/05/21 06:05:20;;;;;;;20.35;5.10;;;;;;;;;;5070386;28;20039;-52
2022/05/21 06:07:50;;;;;;;18.35;4.82;;;;;;;;;;5071823;28;20075;-53
2022/05/21 06:10:18;;;;;;;18.95;5.00;;;;;;;;;;5060765;28;20025;-51
2022/05/21 06:12:44;;;;;;;18.27;5.05;;;;;;;;;;5070245;28;20056;-50
2022/05/21 06:15:11;;;;;;;17.88;5.18;;;;;;;;;;5064537;28;20025;-50
2022/05/21 06:17:38;;;;;;;19.17;5.05;;;;;;;;;;5067365;28;20774;-47
2022/05/21 06:20:05;;;;;;;14.63;5.10;;;;;;;;;;5065883;28;20025;-49
2022/05/21 06:22:32;;;;;;;16.33;4.88;;;;;;;;;;5061049;28;20127;-46
2022/05/21 06:24:59;;;;;;;20.90;5.43;;;;;;;;;;5061366;28;20766;-50
2022/05/21 06:27:25;;;;;;;23.80;5.38;;;;;;;;;;5062780;28;20107;-49
2022/05/21 06:29:54;;;;;;;20.30;4.50;;;;;;;;;;5057277;28;20108;-51
2022/05/21 06:32:20;;;;;;;19.77;5.43;;;;;;;;;;5065415;28;20040;-54
2022/05/21 06:34:46;;;;;;;24.88;4.43;;;;;;;;;;5069849;28;20052;-52
2022/05/21 06:37:13;;;;;;;18.70;5.65;;;;;;;;;;5062767;28;20029;-51
2022/05/21 06:39:40;;;;;;;17.23;4.47;;;;;;;;;;5052295;28;20036;-52
2022/05/21 06:42:07;;;;;;;20.80;4.28;;;;;;;;;;5060244;28;20044;-51
2022/05/21 06:44:33;;;;;;;18.40;4.07;;;;;;;;;;5053792;28;20112;-51
2022/05/21 06:47:00;;;;;;;17.00;5.20;;;;;;;;;;5057185;28;20025;-48
2022/05/21 06:49:26;;;;;;;23.75;5.38;;;;;;;;;;5064455;28;20116;-52
2022/05/21 06:51:56;;;;;;;19.55;5.25;;;;;;;;;;5065950;28;20024;-50
2022/05/21 06:54:23;;;;;;;22.23;4.05;;;;;;;;;;5050263;28;20060;-52
2022/05/21 06:56:49;;;;;;;24.15;4.85;;;;;;;;;;5054873;28;20480;-51
2022/05/21 06:59:15;;;;;;;25.67;4.75;;;;;;;;;;5068612;28;20108;-49
2022/05/21 07:01:42;;;;;;;21.20;4.68;;;;;;;;;;5062722;28;20037;-48
2022/05/21 07:04:08;;;;;;;35.15;6.20;;;;;;;;;;5065843;28;20041;-53
2022/05/21 07:09:21;;;;;;;33.60;5.45;;;;;;;;;;5059359;28;20052;-53
2022/05/21 07:11:49;;;;;;;28.75;4.20;;;;;;;;;;5055872;28;20161;-53
2022/05/21 07:14:15;;;;;;;32.35;5.00;;;;;;;;;;5057315;28;20075;-53
2022/05/21 07:16:41;;;;;;;46.40;6.43;;;;;;;;;;5056795;28;20496;-51
2022/05/21 07:19:07;;;;;;;34.42;5.78;;;;;;;;;;5069905;28;20478;-50
2022/05/21 07:21:33;;;;;;;43.88;5.60;;;;;;;;;;5061908;28;20041;-54
2022/05/21 07:24:00;;;;;;;31.17;4.88;;;;;;;;;;5061792;28;20027;-52
2022/05/21 07:26:26;;;;;;;25.83;4.22;;;;;;;;;;5058543;28;20059;-50
2022/05/21 07:28:52;;;;;;;22.88;4.75;;;;;;;;;;5063712;28;20095;-48
2022/05/21 07:31:18;;;;;;;37.15;6.25;;;;;;;;;;5059993;28;20017;-48
2022/05/21 07:33:44;;;;;;;21.27;3.75;;;;;;;;;;5056257;28;20145;-50
2022/05/21 07:36:10;;;;;;;21.63;4.15;;;;;;;;;;5070783;28;20056;-46
2022/05/21 07:38:37;;;;;;;20.15;3.65;;;;;;;;;;5059933;28;20442;-52
2022/05/21 07:41:03;;;;;;;28.67;4.13;;;;;;;;;;5070285;28;20033;-53
2022/05/21 07:43:30;;;;;;;28.98;4.05;;;;;;;;;;5058768;28;20159;-53
2022/05/21 07:45:57;;;;;;;21.20;3.97;;;;;;;;;;5069561;28;20028;-52
2022/05/21 07:48:24;;;;;;;24.60;5.07;;;;;;;;;;5060520;28;20104;-51
2022/05/21 07:50:54;;;;;;;20.58;4.18;;;;;;;;;;5065355;28;20028;-54
2022/05/21 07:53:21;;;;;;;27.38;3.70;;;;;;;;;;5057551;28;20899;-53
2022/05/21 07:55:48;;;;;;;23.77;3.78;;;;;;;;;;5055806;28;20110;-51
2022/05/21 07:58:15;;;;;;;18.63;3.83;;;;;;;;;;5054360;28;20081;-53
2022/05/21 08:00:41;;;;;;;22.23;4.25;;;;;;;;;;5059145;28;20033;-51
2022/05/21 08:03:10;;;;;;;17.90;3.30;;;;;;;;;;5065651;28;20575;-50
2022/05/21 08:05:38;;;;;;;22.10;3.90;;;;;;;;;;5059745;28;20029;-49
2022/05/21 08:08:04;;;;;;;30.80;5.10;;;;;;;;;;5052796;28;20021;-54
2022/05/21 08:10:30;;;;;;;22.80;3.58;;;;;;;;;;5064824;28;20037;-50
2022/05/21 08:12:57;;;;;;;17.10;3.55;;;;;;;;;;5064610;28;20028;-47
2022/05/21 08:15:23;;;;;;;23.58;4.22;;;;;;;;;;5062226;28;20112;-53
2022/05/21 08:17:49;;;;;;;21.50;3.47;;;;;;;;;;5057177;28;20029;-49
2022/05/21 08:20:15;;;;;;;21.65;3.92;;;;;;;;;;5056518;28;20021;-51
2022/05/21 08:28:13;;;;;;;23.75;4.85;;;;;;;;;;5061894;28;20108;-52
2022/05/21 08:30:40;;;;;;;24.52;4.20;;;;;;;;;;5064820;28;20033;-49
2022/05/21 08:33:06;;;;;;;13.52;2.83;;;;;;;;;;5048556;28;20021;-54
2022/05/21 08:35:33;;;;;;;24.02;3.80;;;;;;;;;;5059408;28;20173;-53
2022/05/21 08:37:59;;;;;;;18.80;3.55;;;;;;;;;;5052400;28;20702;-49
2022/05/21 08:40:37;;;;;;;13.32;3.00;;;;;;;;;;5052151;28;20067;-52
2022/05/21 08:43:04;;;;;;;26.98;4.22;;;;;;;;;;5050083;28;20060;-50
2022/05/21 08:45:53;;;;;;;11.90;3.25;;;;;;;;;;5051449;28;20025;-49
2022/05/21 08:48:20;;;;;;;20.97;3.93;;;;;;;;;;5053422;28;20914;-50
2022/05/21 08:50:49;;;;;;;23.90;4.32;;;;;;;;;;5060670;28;20025;-49
2022/05/21 08:53:19;;;;;;;16.02;2.78;;;;;;;;;;5062057;28;20081;-52
2022/05/21 08:55:46;;;;;;;19.00;3.30;;;;;;;;;;5061525;28;20538;-51
2022/05/21 08:58:12;;;;;;;17.88;4.45;;;;;;;;;;5064979;28;20653;-51
2022/05/21 09:00:41;;;;;;;24.50;3.80;;;;;;;;;;5063436;28;20147;-49
2022/05/21 09:03:12;;;;;;;11.48;2.95;;;;;;;;;;5052391;28;20120;-52
2022/05/21 09:05:39;;;;;;;13.95;3.28;;;;;;;;;;5053988;28;20083;-50
2022/05/21 09:08:18;;;;;;;16.90;3.10;;;;;;;;;;5060144;28;20068;-51
2022/05/21 09:11:11;;;;;;;12.95;3.30;;;;;;;;;;5053948;28;20111;-51
2022/05/21 09:13:46;;;;;;;22.35;3.42;;;;;;;;;;5050299;28;20037;-54
2022/05/21 09:18:58;;;;;;;23.73;3.78;;;;;;;;;;5052227;28;20114;-56
2022/05/21 09:21:25;;;;;;;19.58;3.58;;;;;;;;;;5065663;28;20090;-54
2022/05/21 09:23:53;;;;;;;13.45;2.70;;;;;;;;;;5068847;28;20287;-53
2022/05/21 09:26:30;;;;;;;15.82;4.00;;;;;;;;;;5062820;28;20494;-54
2022/05/21 09:29:16;;;;;;;15.98;3.70;;;;;;;;;;5063281;28;20029;-54
2022/05/21 09:31:44;;;;;;;15.02;3.47;;;;;;;;;;5060340;28;20029;-52
2022/05/21 09:34:12;;;;;;;12.57;3.17;;;;;;;;;;5063882;28;20045;-53
2022/05/21 09:36:39;;;;;;;12.43;2.95;;;;;;;;;;5062989;28;20024;-54
2022/05/21 09:39:05;;;;;;;15.02;3.40;;;;;;;;;;5061700;28;20033;-50
2022/05/21 09:41:36;;;;;;;13.82;3.83;;;;;;;;;;5064631;28;20826;-53
2022/05/21 09:47:13;;;;;;;13.13;3.72;;;;;;;;;;5060026;28;20171;-51
2022/05/21 09:49:39;;;;;;;14.15;3.65;;;;;;;;;;5063193;28;20033;-56
2022/05/21 09:52:07;;;;;;;13.13;3.25;;;;;;;;;;5063358;28;20119;-54
2022/05/21 09:54:35;;;;;;;13.82;4.20;;;;;;;;;;5056462;28;20056;-53
2022/05/21 09:57:01;;;;;;;13.88;4.03;;;;;;;;;;5058260;28;20033;-54
2022/05/21 09:59:29;;;;;;;14.77;3.15;;;;;;;;;;5057046;28;20025;-51
2022/05/21 10:01:57;;;;;;;22.00;4.57;;;;;;;;;;5051204;28;20135;-55
2022/05/21 10:04:23;;;;;;;16.15;3.30;;;;;;;;;;5051337;28;20040;-50
2022/05/21 10:07:13;;;;;;;15.05;4.03;;;;;;;;;;5057429;28;20024;-52
2022/05/21 10:12:27;;;;;;;14.50;3.70;;;;;;;;;;5054802;28;20016;-51
2022/05/21 10:15:13;;;;;;;13.97;4.23;;;;;;;;;;5060565;28;20039;-54
2022/05/21 10:17:50;;;;;;;14.13;3.60;;;;;;;;;;5058768;28;20124;-56
2022/05/21 10:20:16;;;;;;;14.75;3.20;;;;;;;;;;5071295;28;20040;-54
2022/05/21 10:22:52;;;;;;;18.33;3.65;;;;;;;;;;5069689;28;20040;-55
2022/05/21 10:25:23;;;;;;;15.93;4.20;;;;;;;;;;5056101;28;20036;-53
2022/05/21 10:28:08;;;;;;;15.65;4.88;;;;;;;;;;5061372;28;20573;-62
2022/05/21 10:30:40;;;;;;;15.50;4.13;;;;;;;;;;5062211;28;20021;-63
2022/05/21 10:33:06;;;;;;;17.65;4.22;;;;;;;;;;5060965;28;20500;-61
2022/05/21 10:35:48;;;;;;;17.48;4.65;;;;;;;;;;5057874;28;20053;-60
2022/05/21 10:38:30;;;;;;;14.93;4.07;;;;;;;;;;5054825;28;20112;-59
2022/05/21 10:41:02;;;;;;;15.05;5.00;;;;;;;;;;5067539;28;20372;-60
2022/05/21 10:43:34;;;;;;;17.67;4.47;;;;;;;;;;5068387;28;20108;-60
2022/05/21 10:46:25;;;;;;;13.45;3.75;;;;;;;;;;5061967;28;20071;-60
2022/05/21 10:48:51;;;;;;;13.73;3.03;;;;;;;;;;5066554;28;20024;-60
2022/05/21 10:51:21;;;;;;;14.63;3.65;;;;;;;;;;5065905;28;20052;-61
2022/05/21 10:53:50;;;;;;;11.40;4.00;;;;;;;;;;5067381;28;20107;-60
2022/05/21 10:56:43;;;;;;;11.98;3.15;;;;;;;;;;5066540;28;20044;-61
2022/05/21 10:59:15;;;;;;;12.75;3.22;;;;;;;;;;5043393;28;20037;-61
2022/05/21 11:01:47;;;;;;;18.13;4.22;;;;;;;;;;5067603;28;20041;-62
2022/05/21 11:04:13;;;;;;;12.20;3.50;;;;;;;;;;5065100;28;20119;-62
2022/05/21 11:06:56;;;;;;;15.77;3.95;;;;;;;;;;5065555;28;20024;-61
2022/05/21 11:09:45;;;;;;;11.07;3.00;;;;;;;;;;5065530;28;20744;-62
2022/05/21 11:12:21;;;;;;;13.13;2.80;;;;;;;;;;5065063;28;20020;-61
2022/05/21 11:14:57;;;;;;;14.18;2.80;;;;;;;;;;5064470;28;20090;-61
2022/05/21 11:17:23;;;;;;;9.25;3.20;;;;;;;;;;5065819;28;20024;-62
2022/05/21 11:19:55;;;;;;;13.00;3.80;;;;;;;;;;5065918;28;20083;-61
2022/05/21 11:22:30;;;;;;;22.58;4.55;;;;;;;;;;5067460;28;20082;-61
2022/05/21 11:24:59;;;;;;;17.17;3.35;;;;;;;;;;5066378;28;20131;-61
2022/05/21 11:27:27;;;;;;;13.85;3.22;;;;;;;;;;5066419;28;20035;-61
2022/05/21 11:29:53;;;;;;;16.88;4.43;;;;;;;;;;5066155;28;20028;-61
2022/05/21 11:38:01;;;;;;;9.82;3.05;;;;;;;;;;5066807;28;20039;-60
2022/05/21 11:40:45;;;;;;;12.45;3.65;;;;;;;;;;5065233;28;20100;-61
2022/05/21 11:43:11;;;;;;;10.82;2.97;;;;;;;;;;5066729;28;20055;-61
2022/05/21 11:45:37;;;;;;;13.63;3.55;;;;;;;;;;5066110;28;20074;-61
2022/05/21 11:48:26;;;;;;;12.15;3.22;;;;;;;;;;5065913;28;20028;-60
2022/05/21 11:51:11;;;;;;;9.05;3.33;;;;;;;;;;5064528;28;20109;-62
2022/05/21 11:53:39;;;;;;;10.23;3.35;;;;;;;;;;5066248;28;20132;-61
2022/05/21 11:56:08;;;;;;;11.27;3.47;;;;;;;;;;5065908;28;20885;-61
2022/05/21 11:58:54;;;;;;;17.13;3.50;;;;;;;;;;5065716;28;20056;-61
2022/05/21 12:01:41;;;;;;;11.45;3.28;;;;;;;;;;5046104;28;20119;-61
2022/05/21 12:04:24;;;;;;;13.20;3.40;;;;;;;;;;5060566;28;20107;-61
2022/05/21 12:06:50;;;;;;;13.13;3.30;;;;;;;;;;5063714;28;20213;-61
2022/05/21 12:09:27;;;;;;;12.23;3.70;;;;;;;;;;5064087;28;20052;-61
2022/05/21 12:12:13;;;;;;;16.13;3.35;;;;;;;;;;5063362;28;22288;-61
2022/05/21 12:15:11;;;;;;;17.00;3.33;;;;;;;;;;5064957;28;20032;-58
2022/05/21 12:17:52;;;;;;;16.55;3.72;;;;;;;;;;5059801;28;20029;-60
2022/05/21 12:20:38;;;;;;;14.98;3.05;;;;;;;;;;5064013;28;20139;-61
2022/05/21 12:23:04;;;;;;;11.80;2.63;;;;;;;;;;5062855;28;20074;-60
2022/05/21 12:25:45;;;;;;;13.85;2.95;;;;;;;;;;5063044;28;20116;-60
2022/05/21 12:28:13;;;;;;;10.60;2.67;;;;;;;;;;5063622;28;20029;-60
2022/05/21 12:30:39;;;;;;;14.55;3.30;;;;;;;;;;5064006;28;20056;-60
2022/05/21 12:33:07;;;;;;;11.23;2.72;;;;;;;;;;5062535;28;20052;-61
2022/05/21 12:35:44;;;;;;;13.57;3.05;;;;;;;;;;5062785;28;20044;-61
2022/05/21 12:38:14;;;;;;;10.73;2.83;;;;;;;;;;5063844;28;20027;-61
2022/05/21 12:41:00;;;;;;;12.70;2.90;;;;;;;;;;5063047;28;20024;-61
2022/05/21 12:43:26;;;;;;;16.75;3.15;;;;;;;;;;5064201;28;20518;-61
2022/05/21 12:45:52;;;;;;;11.52;2.60;;;;;;;;;;5063858;28;20029;-60
2022/05/21 12:48:19;;;;;;;8.68;2.25;;;;;;;;;;5061674;28;20032;-60
2022/05/21 12:51:14;;;;;;;12.15;2.65;;;;;;;;;;5063854;28;20109;-61
2022/05/21 12:53:47;;;;;;;11.57;2.92;;;;;;;;;;5042924;28;20044;-60
2022/05/21 12:56:13;;;;;;;10.57;2.83;;;;;;;;;;5063023;28;20108;-61
2022/05/21 12:58:39;;;;;;;15.18;2.97;;;;;;;;;;5065953;28;20626;-61
2022/05/21 13:01:06;;;;;;;13.63;2.70;;;;;;;;;;5057185;28;20031;-61
2022/05/21 13:03:34;;;;;;;11.50;3.15;;;;;;;;;;5060033;28;20020;-61
2022/05/21 13:06:05;;;;;;;8.88;2.70;;;;;;;;;;5060099;28;20146;-61
2022/05/21 13:08:32;;;;;;;14.90;3.78;;;;;;;;;;5059355;28;20921;-61
2022/05/21 13:11:03;;;;;;;19.45;4.18;;;;;;;;;;5069446;28;20033;-61
2022/05/21 13:13:34;;;;;;;17.13;4.07;;;;;;;;;;5066281;28;20048;-61
2022/05/21 13:16:01;;;;;;;15.05;3.35;;;;;;;;;;5069128;28;20128;-61
2022/05/21 13:18:46;;;;;;;10.65;3.13;;;;;;;;;;5066376;28;20035;-61
2022/05/21 13:21:21;;;;;;;16.90;3.63;;;;;;;;;;5067657;28;20021;-61
2022/05/21 13:23:54;;;;;;;12.32;2.67;;;;;;;;;;5059681;28;20036;-61
2022/05/21 13:26:22;;;;;;;12.35;3.33;;;;;;;;;;5064554;28;20350;-61
2022/05/21 13:28:48;;;;;;;18.17;2.97;;;;;;;;;;5063846;28;20409;-61
2022/05/21 13:31:21;;;;;;;12.82;2.83;;;;;;;;;;5063399;28;20402;-61
2022/05/21 13:33:50;;;;;;;11.10;2.95;;;;;;;;;;5058747;28;20133;-59
2022/05/21 13:36:19;;;;;;;12.05;2.60;;;;;;;;;;5061121;28;20654;-62
2022/05/21 13:38:49;;;;;;;18.65;3.03;;;;;;;;;;5051560;28;20029;-61
2022/05/21 13:41:21;;;;;;;12.93;2.65;;;;;;;;;;5063205;28;20525;-61
2022/05/21 13:43:50;;;;;;;15.27;3.13;;;;;;;;;;5068373;28;20528;-61
2022/05/21 13:46:27;;;;;;;12.02;2.40;;;;;;;;;;5067801;28;20029;-60
2022/05/21 13:48:55;;;;;;;9.90;1.85;;;;;;;;;;5055913;28;20525;-62
2022/05/21 13:51:22;;;;;;;10.25;2.35;;;;;;;;;;5063175;28;20039;-65
2022/05/21 13:53:50;;;;;;;8.82;2.25;;;;;;;;;;5072602;28;20711;-65
2022/05/21 13:56:28;;;;;;;14.05;2.47;;;;;;;;;;5060203;28;20021;-65
2022/05/21 13:59:13;;;;;;;12.40;3.00;;;;;;;;;;5072780;28;20020;-65
2022/05/21 14:01:39;;;;;;;14.80;2.25;;;;;;;;;;5062647;28;20044;-64
2022/05/21 14:04:10;;;;;;;8.65;2.53;;;;;;;;;;5072242;28;20111;-65
2022/05/21 14:06:40;;;;;;;15.63;2.63;;;;;;;;;;5063822;28;20029;-65
2022/05/21 14:09:15;;;;;;;9.05;2.20;;;;;;;;;;5070164;28;20025;-65
2022/05/21 14:11:49;;;;;;;15.35;2.92;;;;;;;;;;5069361;28;20036;-63
2022/05/21 14:14:15;;;;;;;13.90;2.42;;;;;;;;;;5070015;28;20033;-66
2022/05/21 14:16:43;;;;;;;11.52;2.38;;;;;;;;;;5063039;28;20655;-66
2022/05/21 14:19:09;;;;;;;16.67;2.40;;;;;;;;;;5069071;28;20103;-66
2022/05/21 14:21:37;;;;;;;9.80;2.30;;;;;;;;;;5065241;28;20036;-66
2022/05/21 14:24:07;;;;;;;12.55;3.28;;;;;;;;;;5052902;28;20033;-66
2022/05/21 14:26:33;;;;;;;9.68;2.80;;;;;;;;;;5057239;28;20025;-65
2022/05/21 14:29:01;;;;;;;18.13;2.75;;;;;;;;;;5054609;28;20052;-65
2022/05/21 14:31:35;;;;;;;8.55;2.60;;;;;;;;;;5055123;28;20040;-65
2022/05/21 14:34:21;;;;;;;13.63;2.67;;;;;;;;;;5070110;28;20037;-66
2022/05/21 14:36:49;;;;;;;10.30;2.22;;;;;;;;;;5048814;28;20045;-65
2022/05/21 14:39:15;;;;;;;10.18;2.22;;;;;;;;;;5068378;28;20541;-65
2022/05/21 14:41:43;;;;;;;10.85;2.42;;;;;;;;;;5064030;28;20495;-65
2022/05/21 14:44:31;;;;;;;12.52;2.13;;;;;;;;;;5061489;28;20100;-66
2022/05/21 14:49:42;;;;;;;9.98;2.30;;;;;;;;;;5067112;28;20090;-63
2022/05/21 14:54:54;;;;;;;14.13;2.50;;;;;;;;;;5068372;28;20035;-63
2022/05/21 14:57:20;;;;;;;9.45;2.75;;;;;;;;;;5065094;28;20028;-63
2022/05/21 14:59:49;;;;;;;14.00;2.72;;;;;;;;;;5062872;28;20096;-63
2022/05/21 15:02:17;;;;;;;8.85;2.03;;;;;;;;;;5064113;28;20447;-65
2022/05/21 15:04:43;;;;;;;6.80;2.08;;;;;;;;;;5060438;28;20104;-65
2022/05/21 15:07:13;;;;;;;9.65;2.63;;;;;;;;;;5065441;28;20674;-64
2022/05/21 15:09:39;;;;;;;13.05;2.55;;;;;;;;;;5052714;28;20051;-64
2022/05/21 15:12:06;;;;;;;9.55;2.60;;;;;;;;;;5050512;28;20024;-65
2022/05/21 15:14:37;;;;;;;11.05;2.42;;;;;;;;;;5060726;28;20021;-64
2022/05/21 15:17:04;;;;;;;11.70;2.05;;;;;;;;;;5049318;28;20078;-65
2022/05/21 15:19:30;;;;;;;11.82;3.65;;;;;;;;;;5052788;28;20165;-65
2022/05/21 15:21:58;;;;;;;11.98;3.00;;;;;;;;;;5068668;28;20035;-65
2022/05/21 15:24:24;;;;;;;10.30;2.20;;;;;;;;;;5062595;28;20037;-65
2022/05/21 15:26:50;;;;;;;15.48;4.60;;;;;;;;;;5050280;28;20029;-64